New Franklin, Pennsylvania
Current Conditions -  °F | °C
As of 6:53 AM on Thursday 23 Oct 2014 (Local Time) from KHGR Reporting Station
Overcast Overcast  
Wind Chill: 51°   Ceiling: 2800
Heat Index: 51°   Visibility: 10mi
Dew Point: 41°   Wind: 16mph
Humidity: 68%   Direction: 320°NW
Pressure: 29.94"   Gusts: 22mph
Location:  39.9438°N, 77.6827°W
Report Text: KHGR 231053Z 32014G19KT 10SM OVC028 11/05 A2994 RMK AO2 SLP149 T01060050
Loading
Personal Weather Stations






























Interactive Weather Map
Tropical Storm Tracking
New forecast layout! Learn more

10-Day Weather Forecast

Advertisements
Track Severe Weather on mobile